METAR

Station
VRMM
METAR VRMM 022200Z 06006KT 9999 FEW018 BKN280 28/23 Q1009 NOSIG=
VRMH
METAR VRMH 022200Z 03003KT 9999 FEW018 26/23 Q1009=
VRMK
METAR VRMK 022200Z VRB01KT 9999 FEW018 26/24 Q1009=
VRMT
METAR VRMT 022200Z VRB02KT 9999 FEW018 28/24 Q1009=
VRMG
METAR VRMG 022200Z 04005KT 9999 FEW018 28/25 Q1010 NOSIG=
Last Updated : 2021-03-03 03:07:56

SPECI

Station
VRMM
VRMH
VRMK
VRMT
VRMG
Last Updated : 2021-03-03 03:07:56